AUA881 LOWW-LGSA
Flight info
| Callsign | AUA881 |
|---|---|
| Flight time | 1h 58m |
| Altitude | 37000 |
| Route | ARSIN DCT NALOX DCT BABIT DCT OKTAS DCT REDVA UL616 KOGAT DCT TALAS DCT ATV UP169 MANOK L612 RUSOS |
| Aircraft | A321/M-SDE2E3FGIJ1RWXY/LB1 |
Departure
| Time | 2026-05-01 13:18 |
|---|---|
| Airport | Vienna International Airport (LOWW) |
Arrival
| Time | 2026-05-01 15:16 |
|---|---|
| Airport | Chania International Airport (LGSA) |
| Time | Latitude | Longitude | Altitude | Speed | Heading |
|---|---|---|---|---|---|
| 2026-05-01 13:07 | 48.11829 | 16.56988 | 635 ft | 0 kts | 206° |
| 2026-05-01 13:08 | 48.11839 | 16.56995 | 624 ft | 4 kts | 206° |
| 2026-05-01 13:09 | 48.11864 | 16.57013 | 608 ft | 4 kts | 206° |
| 2026-05-01 13:09 | 48.11876 | 16.57022 | 622 ft | 4 kts | 201° |
| 2026-05-01 13:09 | 48.11893 | 16.57020 | 608 ft | 4 kts | 125° |
| 2026-05-01 13:09 | 48.11900 | 16.57003 | 608 ft | 0 kts | 116° |
| 2026-05-01 13:10 | 48.11895 | 16.57020 | 608 ft | 0 kts | 116° |
| 2026-05-01 13:12 | 48.11893 | 16.57026 | 608 ft | 3 kts | 116° |
| 2026-05-01 13:12 | 48.11879 | 16.57069 | 614 ft | 5 kts | 116° |
| 2026-05-01 13:12 | 48.11865 | 16.57112 | 616 ft | 5 kts | 116° |
| 2026-05-01 13:12 | 48.11854 | 16.57179 | 618 ft | 7 kts | 94° |
| 2026-05-01 13:13 | 48.11845 | 16.57242 | 608 ft | 6 kts | 110° |
| 2026-05-01 13:13 | 48.11828 | 16.57295 | 619 ft | 5 kts | 116° |
| 2026-05-01 13:13 | 48.11808 | 16.57388 | 622 ft | 13 kts | 86° |
| 2026-05-01 13:13 | 48.11774 | 16.57485 | 615 ft | 11 kts | 159° |
| 2026-05-01 13:14 | 48.11703 | 16.57518 | 618 ft | 10 kts | 163° |
| 2026-05-01 13:14 | 48.11641 | 16.57545 | 617 ft | 9 kts | 166° |
| 2026-05-01 13:14 | 48.11585 | 16.57563 | 621 ft | 8 kts | 167° |
| 2026-05-01 13:14 | 48.11533 | 16.57584 | 614 ft | 10 kts | 163° |
| 2026-05-01 13:15 | 48.11453 | 16.57625 | 616 ft | 13 kts | 163° |
| 2026-05-01 13:15 | 48.11367 | 16.57663 | 615 ft | 12 kts | 166° |
| 2026-05-01 13:15 | 48.11288 | 16.57688 | 613 ft | 11 kts | 174° |
| 2026-05-01 13:15 | 48.11221 | 16.57655 | 608 ft | 10 kts | 207° |
| 2026-05-01 13:16 | 48.11165 | 16.57612 | 608 ft | 9 kts | 206° |
| 2026-05-01 13:16 | 48.11113 | 16.57602 | 620 ft | 7 kts | 157° |
| 2026-05-01 13:16 | 48.11068 | 16.57649 | 612 ft | 11 kts | 161° |
| 2026-05-01 13:17 | 48.10933 | 16.57478 | 614 ft | 9 kts | 294° |
| 2026-05-01 13:17 | 48.11001 | 16.57271 | 614 ft | 53 kts | 297° |
| 2026-05-01 13:18 | 48.11780 | 16.54878 | 713 ft | 180 kts | 298° |
| 2026-05-01 13:18 | 48.12289 | 16.53232 | 1634 ft | 172 kts | 293° |
| 2026-05-01 13:18 | 48.12225 | 16.51402 | 2117 ft | 189 kts | 246° |
| 2026-05-01 13:18 | 48.11193 | 16.50013 | 2285 ft | 216 kts | 208° |
| 2026-05-01 13:19 | 48.09769 | 16.49017 | 2525 ft | 237 kts | 204° |
| 2026-05-01 13:19 | 48.08141 | 16.48097 | 2871 ft | 261 kts | 194° |
| 2026-05-01 13:19 | 48.04401 | 16.47997 | 4301 ft | 276 kts | 174° |
| 2026-05-01 13:20 | 48.02474 | 16.48261 | 5148 ft | 280 kts | 173° |
| 2026-05-01 13:20 | 48.00528 | 16.48566 | 5985 ft | 282 kts | 172° |
| 2026-05-01 13:20 | 47.98605 | 16.49150 | 6818 ft | 283 kts | 157° |
| 2026-05-01 13:21 | 47.95027 | 16.51693 | 8369 ft | 289 kts | 151° |
| 2026-05-01 13:21 | 47.93178 | 16.52909 | 9146 ft | 292 kts | 153° |
| 2026-05-01 13:21 | 47.91285 | 16.54078 | 9910 ft | 297 kts | 153° |
| 2026-05-01 13:21 | 47.89336 | 16.55262 | 10400 ft | 312 kts | 153° |
| 2026-05-01 13:22 | 47.87250 | 16.56539 | 10566 ft | 335 kts | 153° |
| 2026-05-01 13:22 | 47.85027 | 16.57909 | 10705 ft | 356 kts | 153° |
| 2026-05-01 13:22 | 47.82889 | 16.59784 | 11110 ft | 358 kts | 136° |
| 2026-05-01 13:22 | 47.81005 | 16.62229 | 11700 ft | 361 kts | 134° |
| 2026-05-01 13:23 | 47.79113 | 16.64710 | 12325 ft | 365 kts | 134° |
| 2026-05-01 13:23 | 47.77199 | 16.67221 | 12954 ft | 368 kts | 134° |
| 2026-05-01 13:23 | 47.75269 | 16.69755 | 13585 ft | 372 kts | 133° |
| 2026-05-01 13:23 | 47.73322 | 16.72315 | 14191 ft | 376 kts | 133° |
| 2026-05-01 13:24 | 47.71352 | 16.74899 | 14728 ft | 379 kts | 133° |
| 2026-05-01 13:24 | 47.69367 | 16.77498 | 15273 ft | 382 kts | 133° |
| 2026-05-01 13:24 | 47.67363 | 16.80117 | 15821 ft | 385 kts | 133° |
| 2026-05-01 13:25 | 47.63319 | 16.85394 | 16894 ft | 390 kts | 133° |
| 2026-05-01 13:25 | 47.61264 | 16.88046 | 17412 ft | 393 kts | 134° |
| 2026-05-01 13:25 | 47.59183 | 16.90691 | 17915 ft | 396 kts | 134° |
| 2026-05-01 13:25 | 47.57080 | 16.93347 | 18393 ft | 398 kts | 134° |
| 2026-05-01 13:26 | 47.54964 | 16.96013 | 18842 ft | 401 kts | 134° |
| 2026-05-01 13:26 | 47.52829 | 16.98701 | 19218 ft | 404 kts | 134° |
| 2026-05-01 13:26 | 47.50685 | 17.01399 | 19618 ft | 406 kts | 134° |
| 2026-05-01 13:26 | 47.48528 | 17.04107 | 20013 ft | 408 kts | 134° |
| 2026-05-01 13:27 | 47.46362 | 17.06828 | 20409 ft | 410 kts | 133° |
| 2026-05-01 13:27 | 47.44187 | 17.09563 | 20818 ft | 412 kts | 133° |
| 2026-05-01 13:27 | 47.39807 | 17.15082 | 21650 ft | 416 kts | 133° |
| 2026-05-01 13:28 | 47.35375 | 17.20642 | 22493 ft | 421 kts | 133° |
| 2026-05-01 13:28 | 47.33141 | 17.23437 | 22937 ft | 423 kts | 133° |
| 2026-05-01 13:29 | 47.28637 | 17.29063 | 23836 ft | 426 kts | 133° |
| 2026-05-01 13:29 | 47.24113 | 17.34694 | 24522 ft | 431 kts | 133° |
| 2026-05-01 13:30 | 47.14860 | 17.46190 | 25803 ft | 440 kts | 133° |
| 2026-05-01 13:31 | 47.10165 | 17.52024 | 26438 ft | 444 kts | 133° |
| 2026-05-01 13:31 | 47.03026 | 17.60859 | 27411 ft | 451 kts | 133° |
| 2026-05-01 13:32 | 46.98202 | 17.66811 | 27988 ft | 456 kts | 133° |
| 2026-05-01 13:33 | 46.90871 | 17.75824 | 28767 ft | 462 kts | 133° |
| 2026-05-01 13:33 | 46.85928 | 17.81882 | 29257 ft | 465 kts | 132° |
| 2026-05-01 13:34 | 46.80968 | 17.87949 | 29853 ft | 464 kts | 132° |
| 2026-05-01 13:34 | 46.76017 | 17.93984 | 30463 ft | 463 kts | 132° |
| 2026-05-01 13:35 | 46.71071 | 17.99994 | 30952 ft | 463 kts | 132° |
| 2026-05-01 13:35 | 46.68599 | 18.02991 | 31207 ft | 462 kts | 132° |
| 2026-05-01 13:35 | 46.63664 | 18.08974 | 31729 ft | 461 kts | 132° |
| 2026-05-01 13:36 | 46.61205 | 18.11957 | 32055 ft | 460 kts | 131° |
| 2026-05-01 13:36 | 46.58749 | 18.14932 | 32354 ft | 459 kts | 131° |
| 2026-05-01 13:36 | 46.53844 | 18.20854 | 32905 ft | 458 kts | 131° |
| 2026-05-01 13:37 | 46.51397 | 18.23800 | 33200 ft | 457 kts | 131° |
| 2026-05-01 13:37 | 46.48948 | 18.26742 | 33460 ft | 456 kts | 131° |
| 2026-05-01 13:37 | 46.46506 | 18.29677 | 33719 ft | 456 kts | 131° |
| 2026-05-01 13:37 | 46.44063 | 18.32614 | 33973 ft | 456 kts | 131° |
| 2026-05-01 13:38 | 46.39182 | 18.38461 | 34489 ft | 455 kts | 131° |
| 2026-05-01 13:38 | 46.36741 | 18.41374 | 34723 ft | 454 kts | 131° |
| 2026-05-01 13:38 | 46.34305 | 18.44281 | 34919 ft | 454 kts | 131° |
| 2026-05-01 13:39 | 46.31865 | 18.47191 | 35106 ft | 455 kts | 131° |
| 2026-05-01 13:39 | 46.29422 | 18.50098 | 35281 ft | 455 kts | 131° |
| 2026-05-01 13:39 | 46.26977 | 18.53009 | 35456 ft | 455 kts | 132° |
| 2026-05-01 13:39 | 46.24531 | 18.55920 | 35640 ft | 456 kts | 132° |
| 2026-05-01 13:40 | 46.22084 | 18.58830 | 35821 ft | 456 kts | 132° |
| 2026-05-01 13:40 | 46.19636 | 18.61737 | 35995 ft | 456 kts | 132° |
| 2026-05-01 13:40 | 46.17178 | 18.64646 | 36194 ft | 457 kts | 133° |
| 2026-05-01 13:40 | 46.14718 | 18.67553 | 36353 ft | 457 kts | 133° |
| 2026-05-01 13:41 | 46.12259 | 18.70456 | 36516 ft | 457 kts | 133° |
| 2026-05-01 13:41 | 46.09797 | 18.73357 | 36678 ft | 458 kts | 133° |
| 2026-05-01 13:41 | 46.07331 | 18.76263 | 36828 ft | 458 kts | 133° |
| 2026-05-01 13:41 | 46.04864 | 18.79170 | 36975 ft | 458 kts | 133° |
| 2026-05-01 13:42 | 46.02393 | 18.82078 | 37110 ft | 459 kts | 133° |
| 2026-05-01 13:42 | 45.99920 | 18.84982 | 37274 ft | 459 kts | 134° |
| 2026-05-01 13:42 | 45.97444 | 18.87883 | 37334 ft | 459 kts | 134° |
| 2026-05-01 13:43 | 45.92337 | 18.93443 | 37328 ft | 467 kts | 143° |
| 2026-05-01 13:43 | 45.86536 | 18.97777 | 37331 ft | 471 kts | 147° |
| 2026-05-01 13:44 | 45.80743 | 19.02027 | 37331 ft | 471 kts | 147° |
| 2026-05-01 13:44 | 45.74913 | 19.06302 | 37329 ft | 471 kts | 147° |
| 2026-05-01 13:45 | 45.69078 | 19.10571 | 37334 ft | 471 kts | 147° |
| 2026-05-01 13:45 | 45.63237 | 19.14834 | 37356 ft | 472 kts | 148° |
| 2026-05-01 13:46 | 45.57391 | 19.19089 | 37350 ft | 472 kts | 148° |
| 2026-05-01 13:46 | 45.51537 | 19.23343 | 37342 ft | 472 kts | 148° |
| 2026-05-01 13:47 | 45.45679 | 19.27587 | 37340 ft | 472 kts | 148° |
| 2026-05-01 13:47 | 45.39815 | 19.31817 | 37332 ft | 473 kts | 148° |
| 2026-05-01 13:48 | 45.33948 | 19.36047 | 37338 ft | 473 kts | 148° |
| 2026-05-01 13:48 | 45.28083 | 19.40272 | 37341 ft | 473 kts | 148° |
| 2026-05-01 13:49 | 45.22207 | 19.44492 | 37337 ft | 473 kts | 148° |
| 2026-05-01 13:49 | 45.16326 | 19.48703 | 37338 ft | 474 kts | 148° |
| 2026-05-01 13:50 | 45.10436 | 19.52912 | 37340 ft | 474 kts | 149° |
| 2026-05-01 13:50 | 45.04545 | 19.57109 | 37352 ft | 474 kts | 149° |
| 2026-05-01 13:51 | 44.98645 | 19.61296 | 37348 ft | 474 kts | 149° |
| 2026-05-01 13:51 | 44.92746 | 19.65478 | 37341 ft | 475 kts | 149° |
| 2026-05-01 13:52 | 44.86584 | 19.68951 | 37337 ft | 479 kts | 156° |
| 2026-05-01 13:52 | 44.80304 | 19.72083 | 37334 ft | 479 kts | 157° |
| 2026-05-01 13:53 | 44.74016 | 19.75211 | 37347 ft | 479 kts | 158° |
| 2026-05-01 13:53 | 44.65652 | 19.79377 | 37338 ft | 479 kts | 158° |
| 2026-05-01 13:54 | 44.59365 | 19.82497 | 37335 ft | 479 kts | 158° |
| 2026-05-01 13:54 | 44.53076 | 19.85596 | 37332 ft | 479 kts | 158° |
| 2026-05-01 13:55 | 44.46786 | 19.88703 | 37334 ft | 479 kts | 158° |
| 2026-05-01 13:55 | 44.40496 | 19.91804 | 37342 ft | 479 kts | 158° |
| 2026-05-01 13:56 | 44.34206 | 19.94892 | 37335 ft | 479 kts | 159° |
| 2026-05-01 13:56 | 44.27914 | 19.97970 | 37328 ft | 479 kts | 159° |
| 2026-05-01 13:57 | 44.21627 | 20.01048 | 37324 ft | 479 kts | 159° |
| 2026-05-01 13:57 | 44.15335 | 20.04120 | 37316 ft | 479 kts | 159° |
| 2026-05-01 13:58 | 44.09043 | 20.07181 | 37331 ft | 479 kts | 159° |
| 2026-05-01 13:58 | 44.02749 | 20.10235 | 37320 ft | 479 kts | 159° |
| 2026-05-01 13:59 | 43.96456 | 20.13292 | 37309 ft | 479 kts | 159° |
| 2026-05-01 13:59 | 43.90160 | 20.16341 | 37309 ft | 479 kts | 159° |
| 2026-05-01 14:00 | 43.83863 | 20.19369 | 37311 ft | 479 kts | 159° |
| 2026-05-01 14:00 | 43.77562 | 20.22398 | 37324 ft | 479 kts | 160° |
| 2026-05-01 14:01 | 43.71266 | 20.25429 | 37312 ft | 478 kts | 160° |
| 2026-05-01 14:01 | 43.64980 | 20.28442 | 37309 ft | 478 kts | 160° |
| 2026-05-01 14:02 | 43.58690 | 20.31445 | 37303 ft | 478 kts | 160° |
| 2026-05-01 14:02 | 43.52411 | 20.34445 | 37292 ft | 478 kts | 160° |
| 2026-05-01 14:03 | 43.46127 | 20.37436 | 37303 ft | 478 kts | 161° |
| 2026-05-01 14:03 | 43.39841 | 20.40419 | 37295 ft | 478 kts | 161° |
| 2026-05-01 14:04 | 43.33548 | 20.43402 | 37297 ft | 478 kts | 161° |
| 2026-05-01 14:04 | 43.27260 | 20.46379 | 37296 ft | 478 kts | 161° |
| 2026-05-01 14:05 | 43.20976 | 20.49349 | 37290 ft | 478 kts | 161° |
| 2026-05-01 14:05 | 43.14717 | 20.52292 | 37296 ft | 479 kts | 161° |
| 2026-05-01 14:06 | 43.08416 | 20.55245 | 37288 ft | 479 kts | 162° |
| 2026-05-01 14:06 | 43.02109 | 20.58205 | 37279 ft | 480 kts | 162° |
| 2026-05-01 14:07 | 42.95842 | 20.61310 | 37285 ft | 479 kts | 159° |
| 2026-05-01 14:08 | 42.86543 | 20.66363 | 37271 ft | 480 kts | 159° |
| 2026-05-01 14:08 | 42.80329 | 20.69697 | 37285 ft | 480 kts | 159° |
| 2026-05-01 14:09 | 42.74105 | 20.72954 | 37284 ft | 479 kts | 160° |
| 2026-05-01 14:09 | 42.67880 | 20.76191 | 37276 ft | 479 kts | 160° |
| 2026-05-01 14:10 | 42.61655 | 20.79438 | 37290 ft | 478 kts | 160° |
| 2026-05-01 14:10 | 42.55446 | 20.82676 | 37299 ft | 478 kts | 160° |
| 2026-05-01 14:11 | 42.49246 | 20.85909 | 37299 ft | 477 kts | 160° |
| 2026-05-01 14:11 | 42.39957 | 20.90741 | 37286 ft | 476 kts | 161° |
| 2026-05-01 14:12 | 42.33770 | 20.93950 | 37283 ft | 476 kts | 160° |
| 2026-05-01 14:12 | 42.27625 | 20.97132 | 37280 ft | 476 kts | 161° |
| 2026-05-01 14:13 | 42.22438 | 20.99801 | 37260 ft | 476 kts | 161° |
| 2026-05-01 14:13 | 42.15238 | 21.03505 | 37263 ft | 477 kts | 161° |
| 2026-05-01 14:14 | 42.09219 | 21.07261 | 37265 ft | 479 kts | 149° |
| 2026-05-01 14:14 | 42.03583 | 21.12056 | 37249 ft | 479 kts | 149° |
| 2026-05-01 14:15 | 41.97933 | 21.16827 | 37243 ft | 480 kts | 150° |
| 2026-05-01 14:15 | 41.92270 | 21.21579 | 37241 ft | 480 kts | 150° |
| 2026-05-01 14:16 | 41.86603 | 21.26331 | 37240 ft | 481 kts | 150° |
| 2026-05-01 14:16 | 41.80930 | 21.31090 | 37237 ft | 481 kts | 150° |
| 2026-05-01 14:17 | 41.75250 | 21.35853 | 37225 ft | 482 kts | 150° |
| 2026-05-01 14:17 | 41.69559 | 21.40619 | 37224 ft | 482 kts | 150° |
| 2026-05-01 14:18 | 41.63885 | 21.45353 | 37215 ft | 481 kts | 150° |
| 2026-05-01 14:18 | 41.59150 | 21.49289 | 37218 ft | 483 kts | 151° |
| 2026-05-01 14:19 | 41.52477 | 21.54812 | 37217 ft | 483 kts | 151° |
| 2026-05-01 14:19 | 41.46760 | 21.59538 | 37221 ft | 484 kts | 151° |
| 2026-05-01 14:20 | 41.38172 | 21.66628 | 37226 ft | 485 kts | 151° |
| 2026-05-01 14:21 | 41.32446 | 21.71358 | 37203 ft | 484 kts | 151° |
| 2026-05-01 14:21 | 41.26719 | 21.76079 | 37211 ft | 484 kts | 152° |
| 2026-05-01 14:22 | 41.18150 | 21.83105 | 37226 ft | 485 kts | 152° |
| 2026-05-01 14:22 | 41.12405 | 21.87788 | 37225 ft | 485 kts | 152° |
| 2026-05-01 14:23 | 41.06602 | 21.92332 | 37200 ft | 481 kts | 159° |
| 2026-05-01 14:23 | 41.00547 | 21.96109 | 37218 ft | 481 kts | 159° |
| 2026-05-01 14:24 | 40.94489 | 21.99867 | 37224 ft | 481 kts | 159° |
| 2026-05-01 14:24 | 40.88423 | 22.03626 | 37229 ft | 482 kts | 159° |
| 2026-05-01 14:25 | 40.82355 | 22.07389 | 37224 ft | 482 kts | 159° |
| 2026-05-01 14:25 | 40.76282 | 22.11137 | 37235 ft | 482 kts | 159° |
| 2026-05-01 14:26 | 40.67162 | 22.16738 | 37237 ft | 482 kts | 160° |
| 2026-05-01 14:27 | 40.61043 | 22.20496 | 37245 ft | 482 kts | 160° |
| 2026-05-01 14:27 | 40.54964 | 22.24232 | 37244 ft | 482 kts | 160° |
| 2026-05-01 14:28 | 40.45886 | 22.29780 | 37243 ft | 482 kts | 160° |
| 2026-05-01 14:28 | 40.39810 | 22.33485 | 37245 ft | 481 kts | 160° |
| 2026-05-01 14:29 | 40.33735 | 22.37191 | 37229 ft | 482 kts | 160° |
| 2026-05-01 14:30 | 40.21548 | 22.44593 | 37242 ft | 483 kts | 160° |
| 2026-05-01 14:31 | 40.12388 | 22.50122 | 37228 ft | 484 kts | 161° |
| 2026-05-01 14:31 | 40.06281 | 22.53805 | 37239 ft | 484 kts | 161° |
| 2026-05-01 14:32 | 40.00165 | 22.57477 | 37244 ft | 484 kts | 161° |
| 2026-05-01 14:32 | 39.94058 | 22.61156 | 37231 ft | 484 kts | 161° |
| 2026-05-01 14:33 | 39.87946 | 22.64833 | 37216 ft | 484 kts | 161° |
| 2026-05-01 14:33 | 39.81829 | 22.68493 | 37213 ft | 484 kts | 161° |
| 2026-05-01 14:34 | 39.75700 | 22.72151 | 37222 ft | 484 kts | 161° |
| 2026-05-01 14:34 | 39.69574 | 22.75802 | 37222 ft | 484 kts | 161° |
| 2026-05-01 14:35 | 39.63443 | 22.79440 | 37207 ft | 485 kts | 162° |
| 2026-05-01 14:35 | 39.57319 | 22.83084 | 37210 ft | 484 kts | 162° |
| 2026-05-01 14:36 | 39.51189 | 22.86721 | 37217 ft | 484 kts | 162° |
| 2026-05-01 14:36 | 39.45060 | 22.90339 | 37180 ft | 484 kts | 162° |
| 2026-05-01 14:37 | 39.38971 | 22.93933 | 37190 ft | 485 kts | 163° |
| 2026-05-01 14:37 | 39.32828 | 22.97559 | 37210 ft | 486 kts | 163° |
| 2026-05-01 14:38 | 39.26674 | 23.01187 | 37222 ft | 486 kts | 163° |
| 2026-05-01 14:38 | 39.20512 | 23.04801 | 37194 ft | 486 kts | 163° |
| 2026-05-01 14:39 | 39.14209 | 23.07284 | 37204 ft | 463 kts | 182° |
| 2026-05-01 14:39 | 39.08839 | 23.08361 | 37202 ft | 469 kts | 178° |
| 2026-05-01 14:40 | 39.01381 | 23.09590 | 37215 ft | 462 kts | 184° |
| 2026-05-01 14:40 | 38.94972 | 23.10355 | 37191 ft | 464 kts | 183° |
| 2026-05-01 14:41 | 38.89595 | 23.11133 | 37205 ft | 464 kts | 183° |
| 2026-05-01 14:41 | 38.83190 | 23.12096 | 37216 ft | 463 kts | 183° |
| 2026-05-01 14:42 | 38.76837 | 23.13016 | 37168 ft | 462 kts | 183° |
| 2026-05-01 14:42 | 38.70460 | 23.13906 | 37194 ft | 461 kts | 184° |
| 2026-05-01 14:43 | 38.64084 | 23.14787 | 37207 ft | 461 kts | 184° |
| 2026-05-01 14:43 | 38.57714 | 23.15682 | 37211 ft | 461 kts | 184° |
| 2026-05-01 14:44 | 38.51338 | 23.16587 | 37185 ft | 460 kts | 184° |
| 2026-05-01 14:44 | 38.41796 | 23.17912 | 37212 ft | 460 kts | 184° |
| 2026-05-01 14:45 | 38.32267 | 23.19234 | 37200 ft | 459 kts | 184° |
| 2026-05-01 14:46 | 38.25923 | 23.20113 | 37194 ft | 459 kts | 184° |
| 2026-05-01 14:46 | 38.16407 | 23.21442 | 37206 ft | 458 kts | 185° |
| 2026-05-01 14:47 | 38.10063 | 23.22314 | 37145 ft | 458 kts | 184° |
| 2026-05-01 14:48 | 38.00563 | 23.23629 | 37178 ft | 458 kts | 184° |
| 2026-05-01 14:48 | 37.91067 | 23.24941 | 37179 ft | 458 kts | 184° |
| 2026-05-01 14:49 | 37.78424 | 23.26680 | 37176 ft | 456 kts | 185° |
| 2026-05-01 14:50 | 37.65880 | 23.28396 | 37174 ft | 454 kts | 185° |
| 2026-05-01 14:51 | 37.56463 | 23.29678 | 37147 ft | 454 kts | 185° |
| 2026-05-01 14:52 | 37.47049 | 23.30962 | 37147 ft | 454 kts | 185° |
| 2026-05-01 14:53 | 37.37639 | 23.32241 | 37130 ft | 453 kts | 185° |
| 2026-05-01 14:53 | 37.31364 | 23.33099 | 37139 ft | 454 kts | 185° |
| 2026-05-01 14:54 | 37.25092 | 23.33948 | 37140 ft | 453 kts | 185° |
| 2026-05-01 14:54 | 37.18824 | 23.34791 | 37084 ft | 453 kts | 185° |
| 2026-05-01 14:54 | 37.15686 | 23.35214 | 36831 ft | 453 kts | 185° |
| 2026-05-01 14:55 | 37.12557 | 23.35637 | 36585 ft | 452 kts | 185° |
| 2026-05-01 14:55 | 37.09431 | 23.36058 | 36322 ft | 452 kts | 185° |
| 2026-05-01 14:55 | 37.06303 | 23.36476 | 36069 ft | 452 kts | 186° |
| 2026-05-01 14:55 | 37.03176 | 23.36893 | 35822 ft | 452 kts | 185° |
| 2026-05-01 14:56 | 37.00049 | 23.37313 | 35411 ft | 453 kts | 185° |
| 2026-05-01 14:56 | 36.96898 | 23.37735 | 34533 ft | 457 kts | 185° |
| 2026-05-01 14:56 | 36.93732 | 23.38159 | 33579 ft | 459 kts | 185° |
| 2026-05-01 14:56 | 36.90546 | 23.38586 | 32611 ft | 462 kts | 185° |
| 2026-05-01 14:57 | 36.87343 | 23.39014 | 31652 ft | 464 kts | 185° |
| 2026-05-01 14:57 | 36.80865 | 23.39879 | 29462 ft | 474 kts | 185° |
| 2026-05-01 14:57 | 36.77578 | 23.40318 | 28357 ft | 475 kts | 184° |
| 2026-05-01 14:58 | 36.74290 | 23.40764 | 27406 ft | 474 kts | 184° |
| 2026-05-01 14:58 | 36.71043 | 23.41212 | 26749 ft | 465 kts | 183° |
| 2026-05-01 14:58 | 36.67841 | 23.41652 | 26018 ft | 461 kts | 183° |
| 2026-05-01 14:58 | 36.64666 | 23.42079 | 25304 ft | 456 kts | 183° |
| 2026-05-01 14:59 | 36.61522 | 23.42497 | 24601 ft | 452 kts | 183° |
| 2026-05-01 14:59 | 36.58411 | 23.42908 | 23911 ft | 448 kts | 183° |
| 2026-05-01 14:59 | 36.55329 | 23.43313 | 23167 ft | 443 kts | 182° |
| 2026-05-01 14:59 | 36.52292 | 23.43711 | 22519 ft | 435 kts | 182° |
| 2026-05-01 15:00 | 36.46386 | 23.44496 | 21304 ft | 418 kts | 182° |
| 2026-05-01 15:00 | 36.43522 | 23.44878 | 20728 ft | 409 kts | 181° |
| 2026-05-01 15:00 | 36.40720 | 23.45252 | 20186 ft | 401 kts | 181° |
| 2026-05-01 15:01 | 36.37975 | 23.45618 | 19672 ft | 393 kts | 181° |
| 2026-05-01 15:01 | 36.35270 | 23.45973 | 19159 ft | 390 kts | 181° |
| 2026-05-01 15:01 | 36.32582 | 23.46320 | 18638 ft | 387 kts | 181° |
| 2026-05-01 15:01 | 36.29916 | 23.46709 | 18138 ft | 387 kts | 176° |
| 2026-05-01 15:02 | 36.27294 | 23.47499 | 17691 ft | 390 kts | 168° |
| 2026-05-01 15:02 | 36.25608 | 23.48287 | 17401 ft | 393 kts | 162° |
| 2026-05-01 15:02 | 36.22407 | 23.50510 | 16837 ft | 397 kts | 150° |
| 2026-05-01 15:02 | 36.20220 | 23.52590 | 16376 ft | 395 kts | 147° |
| 2026-05-01 15:03 | 36.18066 | 23.54680 | 15936 ft | 392 kts | 147° |
| 2026-05-01 15:03 | 36.15923 | 23.56747 | 15465 ft | 389 kts | 147° |
| 2026-05-01 15:03 | 36.13800 | 23.58796 | 15007 ft | 385 kts | 147° |
| 2026-05-01 15:03 | 36.11697 | 23.60821 | 14523 ft | 382 kts | 147° |
| 2026-05-01 15:04 | 36.09611 | 23.62825 | 14045 ft | 378 kts | 147° |
| 2026-05-01 15:04 | 36.07541 | 23.64812 | 13518 ft | 375 kts | 147° |
| 2026-05-01 15:04 | 36.05492 | 23.66780 | 13025 ft | 371 kts | 146° |
| 2026-05-01 15:04 | 36.03460 | 23.68731 | 12518 ft | 368 kts | 146° |
| 2026-05-01 15:05 | 36.01449 | 23.70665 | 12019 ft | 365 kts | 146° |
| 2026-05-01 15:05 | 35.99455 | 23.72587 | 11501 ft | 362 kts | 146° |
| 2026-05-01 15:05 | 35.97474 | 23.74491 | 10991 ft | 359 kts | 146° |
| 2026-05-01 15:05 | 35.95538 | 23.76349 | 10791 ft | 345 kts | 146° |
| 2026-05-01 15:06 | 35.93689 | 23.78125 | 10663 ft | 329 kts | 146° |
| 2026-05-01 15:06 | 35.91922 | 23.79823 | 10504 ft | 316 kts | 146° |
| 2026-05-01 15:06 | 35.90201 | 23.81474 | 10210 ft | 311 kts | 146° |
| 2026-05-01 15:06 | 35.88503 | 23.83100 | 9975 ft | 307 kts | 146° |
| 2026-05-01 15:07 | 35.86817 | 23.84709 | 9841 ft | 306 kts | 146° |
| 2026-05-01 15:07 | 35.85135 | 23.86311 | 9704 ft | 305 kts | 146° |
| 2026-05-01 15:07 | 35.83457 | 23.87907 | 9503 ft | 305 kts | 146° |
| 2026-05-01 15:07 | 35.81763 | 23.89516 | 8958 ft | 306 kts | 146° |
| 2026-05-01 15:08 | 35.80092 | 23.91109 | 8561 ft | 302 kts | 146° |
| 2026-05-01 15:08 | 35.78344 | 23.92377 | 8401 ft | 282 kts | 165° |
| 2026-05-01 15:08 | 35.76485 | 23.92758 | 8167 ft | 265 kts | 187° |
| 2026-05-01 15:08 | 35.74727 | 23.92313 | 7808 ft | 254 kts | 207° |
| 2026-05-01 15:09 | 35.73278 | 23.91212 | 7421 ft | 245 kts | 226° |
| 2026-05-01 15:09 | 35.72008 | 23.89763 | 6955 ft | 247 kts | 224° |
| 2026-05-01 15:09 | 35.70684 | 23.88417 | 6567 ft | 247 kts | 220° |
| 2026-05-01 15:09 | 35.69319 | 23.87190 | 6180 ft | 246 kts | 217° |
| 2026-05-01 15:10 | 35.67883 | 23.86045 | 5761 ft | 245 kts | 213° |
| 2026-05-01 15:10 | 35.64860 | 23.84676 | 5049 ft | 230 kts | 179° |
| 2026-05-01 15:10 | 35.63312 | 23.85089 | 4540 ft | 229 kts | 155° |
| 2026-05-01 15:11 | 35.62034 | 23.86216 | 4132 ft | 225 kts | 132° |
| 2026-05-01 15:11 | 35.60933 | 23.89657 | 3362 ft | 214 kts | 95° |
| 2026-05-01 15:11 | 35.60756 | 23.91456 | 3023 ft | 209 kts | 95° |
| 2026-05-01 15:12 | 35.60360 | 23.93123 | 2894 ft | 200 kts | 109° |
| 2026-05-01 15:12 | 35.59345 | 23.96157 | 2659 ft | 191 kts | 109° |
| 2026-05-01 15:12 | 35.58849 | 23.97665 | 2572 ft | 190 kts | 107° |
| 2026-05-01 15:13 | 35.57385 | 24.02101 | 2332 ft | 176 kts | 108° |
| 2026-05-01 15:14 | 35.56540 | 24.04644 | 1917 ft | 151 kts | 106° |
| 2026-05-01 15:14 | 35.56160 | 24.05794 | 1725 ft | 141 kts | 107° |
| 2026-05-01 15:14 | 35.55442 | 24.07966 | 1353 ft | 137 kts | 105° |
| 2026-05-01 15:15 | 35.54720 | 24.10143 | 1022 ft | 137 kts | 106° |
| 2026-05-01 15:15 | 35.53998 | 24.12401 | 692 ft | 140 kts | 105° |
| 2026-05-01 15:16 | 35.53326 | 24.14534 | 490 ft | 111 kts | 112° |
| 2026-05-01 15:16 | 35.52994 | 24.15524 | 490 ft | 36 kts | 111° |
| 2026-05-01 15:17 | 35.52883 | 24.15867 | 495 ft | 13 kts | 114° |
| 2026-05-01 15:18 | 35.53017 | 24.15981 | 496 ft | 8 kts | 349° |
| 2026-05-01 15:18 | 35.53050 | 24.15915 | 498 ft | 12 kts | 292° |
| 2026-05-01 15:19 | 35.53143 | 24.15628 | 491 ft | 12 kts | 292° |
| 2026-05-01 15:19 | 35.53206 | 24.15430 | 488 ft | 12 kts | 291° |
| 2026-05-01 15:19 | 35.53238 | 24.15331 | 495 ft | 13 kts | 291° |
| 2026-05-01 15:20 | 35.53301 | 24.15135 | 497 ft | 12 kts | 291° |
| 2026-05-01 15:20 | 35.53332 | 24.15040 | 491 ft | 12 kts | 292° |
| 2026-05-01 15:20 | 35.53360 | 24.14960 | 497 ft | 9 kts | 293° |
| 2026-05-01 15:21 | 35.53380 | 24.14899 | 488 ft | 7 kts | 292° |
| 2026-05-01 15:21 | 35.53402 | 24.14831 | 491 ft | 11 kts | 292° |
| 2026-05-01 15:21 | 35.53438 | 24.14723 | 495 ft | 16 kts | 291° |
| 2026-05-01 15:21 | 35.53477 | 24.14602 | 494 ft | 14 kts | 291° |
| 2026-05-01 15:22 | 35.53543 | 24.14398 | 498 ft | 13 kts | 291° |
| 2026-05-01 15:22 | 35.53577 | 24.14337 | 489 ft | 6 kts | 339° |
| 2026-05-01 15:22 | 35.53629 | 24.14354 | 488 ft | 10 kts | 22° |
| 2026-05-01 15:23 | 35.53685 | 24.14342 | 498 ft | 7 kts | 305° |
| 2026-05-01 15:23 | 35.53704 | 24.14285 | 496 ft | 9 kts | 291° |
| 2026-05-01 15:23 | 35.53737 | 24.14227 | 495 ft | 7 kts | 341° |
| 2026-05-01 15:23 | 35.53778 | 24.14240 | 494 ft | 5 kts | 21° |
| 2026-05-01 15:24 | 35.53801 | 24.14252 | 492 ft | 2 kts | 22° |
| 2026-05-01 15:24 | 35.53803 | 24.14253 | 498 ft | 0 kts | 22° |